Time,TemperatureF,DewpointF,PressureIn,WindDirection,WindDirectionDegrees,WindSpeedMPH,WindSpeedGustMPH,Humidity,HourlyPrecipIn,Conditions,Clouds,dailyrainin,SoftwareType,DateUTC
2013-01-12 00:00:00,27.5,22.5,30.03,West,260,0.0,2.0,81,0.00,,---,0.00,VWS V14.01,2013-01-12 08:00:00,
2013-01-12 00:02:00,27.7,22.9,30.03,West,266,0.0,3.0,82,0.00,,---,0.00,VWS V14.01,2013-01-12 08:02:00,
2013-01-12 00:07:00,28.2,23.1,30.03,WNW,288,2.0,4.0,81,0.00,,---,0.00,VWS V14.01,2013-01-12 08:07:00,
2013-01-12 00:12:00,28.5,23.1,30.03,West,270,1.0,4.0,80,0.00,,---,0.00,VWS V14.01,2013-01-12 08:12:00,
2013-01-12 00:17:00,28.6,23.2,30.03,West,281,0.0,4.0,80,0.00,,---,0.00,VWS V14.01,2013-01-12 08:17:00,
2013-01-12 00:22:00,28.6,23.2,30.03,West,281,0.0,4.0,80,0.00,,---,0.00,VWS V14.01,2013-01-12 08:22:00,
2013-01-12 00:27:00,29.1,24.0,30.04,West,267,0.0,4.0,81,0.00,,---,0.00,VWS V14.01,2013-01-12 08:27:00,
2013-01-12 00:30:00,29.2,23.8,30.04,WNW,283,1.0,4.0,80,0.00,,---,0.00,VWS V14.01,2013-01-12 08:30:00,
2013-01-12 00:32:00,29.6,23.9,30.04,WNW,285,0.0,4.0,79,0.00,,---,0.00,VWS V14.01,2013-01-12 08:32:00,
2013-01-12 00:37:00,29.8,24.1,30.03,WNW,288,3.0,5.0,79,0.00,,---,0.00,VWS V14.01,2013-01-12 08:37:00,
2013-01-12 00:42:00,30.1,24.1,30.03,NW,304,4.0,6.0,78,0.00,,---,0.00,VWS V14.01,2013-01-12 08:42:00,
2013-01-12 00:47:00,30.5,24.2,30.04,WNW,288,5.0,7.0,77,0.00,,---,0.00,VWS V14.01,2013-01-12 08:47:00,
2013-01-12 00:52:00,30.4,24.1,30.04,WNW,303,5.0,8.0,77,0.00,,---,0.00,VWS V14.01,2013-01-12 08:52:00,
2013-01-12 00:57:00,30.5,23.9,30.04,WNW,303,6.0,8.0,76,0.00,,---,0.00,VWS V14.01,2013-01-12 08:57:00,
2013-01-12 01:00:00,30.6,24.0,30.04,NW,312,6.0,9.0,76,0.00,,---,0.00,VWS V14.01,2013-01-12 09:00:00,
2013-01-12 01:02:00,31.1,24.4,30.03,WNW,296,8.0,13.0,76,0.00,,---,0.00,VWS V14.01,2013-01-12 09:02:00,
2013-01-12 01:07:00,30.9,24.2,30.04,WNW,291,4.0,13.0,76,0.00,,---,0.00,VWS V14.01,2013-01-12 09:07:00,
2013-01-12 01:12:00,30.6,24.3,30.04,WNW,284,5.0,13.0,77,0.00,,---,0.00,VWS V14.01,2013-01-12 09:12:00,
2013-01-12 01:17:00,30.3,24.3,30.04,West,281,4.0,13.0,78,0.00,,---,0.00,VWS V14.01,2013-01-12 09:17:00,
2013-01-12 01:22:00,30.2,24.8,30.05,WNW,294,7.0,13.0,80,0.00,,---,0.00,VWS V14.01,2013-01-12 09:22:00,
2013-01-12 01:27:00,30.2,24.8,30.05,West,277,4.0,13.0,80,0.00,,---,0.00,VWS V14.01,2013-01-12 09:27:00,
2013-01-12 01:30:00,30.2,24.8,30.05,WNW,297,4.0,13.0,80,0.00,,---,0.00,VWS V14.01,2013-01-12 09:30:00,
2013-01-12 01:32:00,30.2,25.1,30.04,WNW,285,6.0,8.0,81,0.00,,---,0.00,VWS V14.01,2013-01-12 09:32:00,
2013-01-12 01:37:00,30.2,25.1,30.04,WNW,291,3.0,8.0,81,0.00,,---,0.00,VWS V14.01,2013-01-12 09:37:00,
2013-01-12 01:42:00,30.1,25.0,30.04,West,279,4.0,9.0,81,0.00,,---,0.00,VWS V14.01,2013-01-12 09:42:00,
2013-01-12 01:47:00,30.0,25.2,30.04,West,280,3.0,9.0,82,0.00,,---,0.00,VWS V14.01,2013-01-12 09:47:00,
2013-01-12 01:52:00,30.0,25.2,30.04,West,271,4.0,9.0,82,0.00,,---,0.00,VWS V14.01,2013-01-12 09:52:00,
2013-01-12 01:57:00,29.8,25.3,30.04,West,280,3.0,9.0,83,0.00,,---,0.00,VWS V14.01,2013-01-12 09:57:00,
2013-01-12 02:00:00,29.8,25.3,30.04,West,264,1.0,9.0,83,0.00,,---,0.00,VWS V14.01,2013-01-12 10:00:00,
2013-01-12 02:02:00,29.6,25.4,30.05,SW,232,3.0,6.0,84,0.00,,---,0.00,VWS V14.01,2013-01-12 10:02:00,
2013-01-12 02:07:00,29.3,25.1,30.05,WSW,237,0.0,6.0,84,0.00,,---,0.00,VWS V14.01,2013-01-12 10:07:00,
2013-01-12 02:12:00,28.9,24.7,30.05,SW,228,3.0,6.0,84,0.00,,---,0.00,VWS V14.01,2013-01-12 10:12:00,
2013-01-12 02:17:00,28.6,24.7,30.04,WSW,242,1.0,6.0,85,0.00,,---,0.00,VWS V14.01,2013-01-12 10:17:00,
2013-01-12 02:22:00,28.2,24.3,30.04,West,270,1.0,6.0,85,0.00,,---,0.00,VWS V14.01,2013-01-12 10:22:00,
2013-01-12 02:27:00,28.0,24.1,30.04,West,266,3.0,7.0,85,0.00,,---,0.00,VWS V14.01,2013-01-12 10:27:00,
2013-01-12 02:30:00,28.0,24.1,30.04,WNW,295,6.0,7.0,85,0.00,,---,0.00,VWS V14.01,2013-01-12 10:30:00,
2013-01-12 02:32:00,28.1,23.9,30.04,West,274,4.0,6.0,84,0.00,,---,0.00,VWS V14.01,2013-01-12 10:32:00,
2013-01-12 02:37:00,28.3,23.8,30.04,West,278,6.0,6.0,83,0.00,,---,0.00,VWS V14.01,2013-01-12 10:37:00,
2013-01-12 02:42:00,28.5,23.7,30.04,West,276,2.0,6.0,82,0.00,,---,0.00,VWS V14.01,2013-01-12 10:42:00,
2013-01-12 02:47:00,28.5,23.4,30.04,West,264,0.0,6.0,81,0.00,,---,0.00,VWS V14.01,2013-01-12 10:47:00,
2013-01-12 02:52:00,28.5,23.4,30.04,West,259,0.0,6.0,81,0.00,,---,0.00,VWS V14.01,2013-01-12 10:52:00,
2013-01-12 02:57:00,28.5,23.4,30.04,WSW,255,3.0,6.0,81,0.00,,---,0.00,VWS V14.01,2013-01-12 10:57:00,
2013-01-12 03:00:00,28.6,23.5,30.04,SW,236,3.0,6.0,81,0.00,,---,0.00,VWS V14.01,2013-01-12 11:00:00,
2013-01-12 03:02:00,28.7,23.3,30.04,WSW,246,0.0,6.0,80,0.00,,---,0.00,VWS V14.01,2013-01-12 11:02:00,
2013-01-12 03:07:00,28.8,23.1,30.04,NW,304,1.0,6.0,79,0.00,,---,0.00,VWS V14.01,2013-01-12 11:07:00,
2013-01-12 03:12:00,28.7,22.7,30.04,West,280,3.0,6.0,78,0.00,,---,0.00,VWS V14.01,2013-01-12 11:12:00,
2013-01-12 03:17:00,29.1,23.1,30.04,WNW,301,0.0,6.0,78,0.00,,---,0.00,VWS V14.01,2013-01-12 11:17:00,
2013-01-12 03:22:00,28.8,22.5,30.04,WSW,237,0.0,6.0,77,0.00,,---,0.00,VWS V14.01,2013-01-12 11:22:00,
2013-01-12 03:27:00,28.6,22.3,30.04,SSW,210,0.0,6.0,77,0.00,,---,0.00,VWS V14.01,2013-01-12 11:27:00,
2013-01-12 03:30:00,28.5,21.9,30.04,SW,214,0.0,6.0,76,0.00,,---,0.00,VWS V14.01,2013-01-12 11:30:00,
2013-01-12 03:32:00,28.1,21.8,30.04,WSW,243,3.0,3.0,77,0.00,,---,0.00,VWS V14.01,2013-01-12 11:32:00,
2013-01-12 03:37:00,28.1,22.1,30.04,SW,232,1.0,3.0,78,0.00,,---,0.00,VWS V14.01,2013-01-12 11:37:00,
2013-01-12 03:42:00,28.0,22.0,30.04,SW,233,0.0,3.0,78,0.00,,---,0.00,VWS V14.01,2013-01-12 11:42:00,
2013-01-12 03:47:00,27.6,21.6,30.04,WSW,257,3.0,3.0,78,0.00,,---,0.00,VWS V14.01,2013-01-12 11:47:00,
2013-01-12 03:52:00,27.5,21.9,30.04,SW,235,2.0,3.0,79,0.00,,---,0.00,VWS V14.01,2013-01-12 11:52:00,
2013-01-12 03:57:00,27.6,22.2,30.04,WNW,283,2.0,5.0,80,0.00,,---,0.00,VWS V14.01,2013-01-12 11:57:00,
2013-01-12 04:00:00,27.7,22.6,30.04,SW,235,0.0,5.0,81,0.00,,---,0.00,VWS V14.01,2013-01-12 12:00:00,
2013-01-12 04:02:00,28.0,22.3,30.04,WSW,255,3.0,3.0,79,0.00,,---,0.00,VWS V14.01,2013-01-12 12:02:00,
2013-01-12 04:07:00,28.0,22.3,30.04,WSW,258,3.0,5.0,79,0.00,,---,0.00,VWS V14.01,2013-01-12 12:07:00,
2013-01-12 04:12:00,27.9,22.2,30.04,WSW,253,0.0,5.0,79,0.00,,---,0.00,VWS V14.01,2013-01-12 12:12:00,
2013-01-12 04:17:00,27.6,22.0,30.04,WSW,240,0.0,5.0,79,0.00,,---,0.00,VWS V14.01,2013-01-12 12:17:00,
2013-01-12 04:22:00,27.2,21.6,30.04,WSW,256,0.0,5.0,79,0.00,,---,0.00,VWS V14.01,2013-01-12 12:22:00,
2013-01-12 04:27:00,26.9,21.6,30.05,WSW,247,0.0,5.0,80,0.00,,---,0.00,VWS V14.01,2013-01-12 12:27:00,
2013-01-12 04:30:00,26.8,21.2,30.05,WSW,247,0.0,5.0,79,0.00,,---,0.00,VWS V14.01,2013-01-12 12:30:00,
2013-01-12 04:32:00,26.4,21.1,30.05,WSW,246,0.0,0.0,80,0.00,,---,0.00,VWS V14.01,2013-01-12 12:32:00,
2013-01-12 04:37:00,25.7,20.1,30.05,WSW,246,0.0,0.0,79,0.00,,---,0.00,VWS V14.01,2013-01-12 12:37:00,
2013-01-12 04:42:00,25.0,20.0,30.05,WSW,246,0.0,0.0,81,0.00,,---,0.00,VWS V14.01,2013-01-12 12:42:00,
2013-01-12 04:47:00,25.0,20.6,30.05,WSW,252,0.0,1.0,83,0.00,,---,0.00,VWS V14.01,2013-01-12 12:47:00,
2013-01-12 04:52:00,25.1,21.0,30.05,SW,235,0.0,1.0,84,0.00,,---,0.00,VWS V14.01,2013-01-12 12:52:00,
2013-01-12 04:57:00,25.4,21.2,30.05,WSW,246,0.0,1.0,84,0.00,,---,0.00,VWS V14.01,2013-01-12 12:57:00,
2013-01-12 05:00:00,25.4,21.2,30.05,WSW,247,2.0,2.0,84,0.00,,---,0.00,VWS V14.01,2013-01-12 13:00:00,
2013-01-12 05:02:00,25.6,21.2,30.05,SW,236,0.0,2.0,83,0.00,,---,0.00,VWS V14.01,2013-01-12 13:02:00,
2013-01-12 05:07:00,25.3,20.3,30.05,SSW,210,0.0,2.0,81,0.00,,---,0.00,VWS V14.01,2013-01-12 13:07:00,
2013-01-12 05:12:00,24.9,20.2,30.06,SSW,210,0.0,2.0,82,0.00,,---,0.00,VWS V14.01,2013-01-12 13:12:00,
2013-01-12 05:17:00,23.9,18.6,30.06,SSW,210,0.0,2.0,80,0.00,,---,0.00,VWS V14.01,2013-01-12 13:17:00,
2013-01-12 05:22:00,22.9,18.2,30.06,SSW,212,0.0,2.0,82,0.00,,---,0.00,VWS V14.01,2013-01-12 13:22:00,
2013-01-12 05:27:00,22.3,17.4,30.06,West,271,0.0,2.0,81,0.00,,---,0.00,VWS V14.01,2013-01-12 13:27:00,
2013-01-12 05:30:00,22.0,17.1,30.06,West,271,0.0,2.0,81,0.00,,---,0.00,VWS V14.01,2013-01-12 13:30:00,
2013-01-12 05:32:00,21.3,16.7,30.06,West,271,0.0,0.0,82,0.00,,---,0.00,VWS V14.01,2013-01-12 13:32:00,
2013-01-12 05:37:00,21.3,17.5,30.06,West,273,0.0,0.0,85,0.00,,---,0.00,VWS V14.01,2013-01-12 13:37:00,
2013-01-12 05:42:00,21.6,18.1,30.07,West,273,0.0,0.0,86,0.00,,---,0.00,VWS V14.01,2013-01-12 13:42:00,
2013-01-12 05:47:00,21.5,17.7,30.07,West,270,0.0,0.0,85,0.00,,---,0.00,VWS V14.01,2013-01-12 13:47:00,
2013-01-12 05:52:00,21.1,17.3,30.07,WSW,249,0.0,1.0,85,0.00,,---,0.00,VWS V14.01,2013-01-12 13:52:00,
2013-01-12 05:57:00,21.0,17.5,30.08,West,260,1.0,2.0,86,0.00,,---,0.00,VWS V14.01,2013-01-12 13:57:00,
2013-01-12 06:00:00,21.1,17.8,30.08,WSW,253,2.0,3.0,87,0.00,,---,0.00,VWS V14.01,2013-01-12 14:00:00,
2013-01-12 06:02:00,21.9,18.9,30.08,WSW,243,0.0,2.0,88,0.00,,---,0.00,VWS V14.01,2013-01-12 14:02:00,
2013-01-12 06:07:00,22.0,18.5,30.08,WSW,240,0.0,3.0,86,0.00,,---,0.00,VWS V14.01,2013-01-12 14:07:00,
2013-01-12 06:12:00,21.8,18.3,30.08,West,277,2.0,3.0,86,0.00,,---,0.00,VWS V14.01,2013-01-12 14:12:00,
2013-01-12 06:17:00,21.9,18.4,30.08,WSW,250,0.0,3.0,86,0.00,,---,0.00,VWS V14.01,2013-01-12 14:17:00,
2013-01-12 06:22:00,21.9,18.4,30.09,WSW,255,0.0,3.0,86,0.00,,---,0.00,VWS V14.01,2013-01-12 14:22:00,
2013-01-12 06:27:00,22.0,18.7,30.08,WSW,240,0.0,3.0,87,0.00,,---,0.00,VWS V14.01,2013-01-12 14:27:00,
2013-01-12 06:30:00,22.1,18.8,30.08,SW,235,0.0,3.0,87,0.00,,---,0.00,VWS V14.01,2013-01-12 14:30:00,
2013-01-12 06:32:00,22.3,18.8,30.09,SW,235,0.0,0.0,86,0.00,,---,0.00,VWS V14.01,2013-01-12 14:32:00,
2013-01-12 06:37:00,22.6,19.3,30.09,West,264,0.0,1.0,87,0.00,,---,0.00,VWS V14.01,2013-01-12 14:37:00,
2013-01-12 06:42:00,22.8,19.2,30.09,SW,233,0.0,1.0,86,0.00,,---,0.00,VWS V14.01,2013-01-12 14:42:00,
2013-01-12 06:47:00,22.7,18.6,30.09,SW,233,0.0,1.0,84,0.00,,---,0.00,VWS V14.01,2013-01-12 14:47:00,
2013-01-12 07:00:00,22.4,18.6,30.09,WSW,248,0.0,1.0,85,0.00,,---,0.00,VWS V14.01,2013-01-12 15:00:00,
2013-01-12 07:30:00,23.5,19.9,30.11,WSW,248,0.0,2.0,86,0.00,,---,0.00,VWS V14.01,2013-01-12 15:30:00,
2013-01-12 08:00:00,27.7,22.4,30.12,WSW,248,0.0,3.0,80,0.00,,---,0.00,VWS V14.01,2013-01-12 16:00:00,
2013-01-12 08:30:00,31.7,24.7,30.12,West,270,0.0,3.0,75,0.00,,---,0.00,VWS V14.01,2013-01-12 16:30:00,
2013-01-12 09:00:00,38.4,21.9,30.12,West,278,4.0,7.0,51,0.00,,---,0.00,VWS V14.01,2013-01-12 17:00:00,
2013-01-12 09:08:00,35.6,23.1,30.12,NW,305,0.0,0.0,60,0.00,,---,0.00,VWS V14.01,2013-01-12 17:08:00,
2013-01-12 09:13:00,35.9,22.2,30.12,NW,307,0.0,2.0,57,0.00,,---,0.00,VWS V14.01,2013-01-12 17:13:00,
2013-01-12 09:18:00,36.2,22.5,30.12,WNW,295,1.0,3.0,57,0.00,,---,0.00,VWS V14.01,2013-01-12 17:18:00,
2013-01-12 09:23:00,36.6,21.5,30.12,WNW,285,0.0,3.0,54,0.00,,---,0.00,VWS V14.01,2013-01-12 17:23:00,
2013-01-12 09:28:00,37.1,21.1,30.12,West,271,1.0,3.0,52,0.00,,---,0.00,VWS V14.01,2013-01-12 17:28:00,
2013-01-12 09:30:00,37.1,21.1,30.12,West,271,0.0,3.0,52,0.00,,---,0.00,VWS V14.01,2013-01-12 17:30:00,
2013-01-12 09:33:00,37.3,20.4,30.12,West,274,0.0,1.0,50,0.00,,---,0.00,VWS V14.01,2013-01-12 17:33:00,
2013-01-12 09:38:00,37.7,20.3,30.12,SE,127,0.0,2.0,49,0.00,,---,0.00,VWS V14.01,2013-01-12 17:38:00,
2013-01-12 09:43:00,38.1,21.1,30.12,WNW,289,1.0,3.0,50,0.00,,---,0.00,VWS V14.01,2013-01-12 17:43:00,
2013-01-12 09:48:00,38.2,20.7,30.12,SSW,193,0.0,3.0,49,0.00,,---,0.00,VWS V14.01,2013-01-12 17:48:00,
2013-01-12 09:53:00,38.6,20.6,30.12,West,280,2.0,5.0,48,0.00,,---,0.00,VWS V14.01,2013-01-12 17:53:00,
2013-01-12 09:58:00,38.4,21.9,30.12,WNW,285,3.0,7.0,51,0.00,,---,0.00,VWS V14.01,2013-01-12 17:58:00,
2013-01-12 10:00:00,38.4,21.9,30.12,West,278,4.0,7.0,51,0.00,,---,0.00,VWS V14.01,2013-01-12 18:00:00,
2013-01-12 10:03:00,38.4,22.3,30.12,WNW,294,5.0,6.0,52,0.00,,---,0.00,VWS V14.01,2013-01-12 18:03:00,
2013-01-12 10:08:00,38.1,22.5,30.12,West,278,4.0,9.0,53,0.00,,---,0.00,VWS V14.01,2013-01-12 18:08:00,
2013-01-12 10:13:00,38.3,22.7,30.12,WNW,285,5.0,9.0,53,0.00,,---,0.00,VWS V14.01,2013-01-12 18:13:00,
2013-01-12 10:18:00,38.2,22.1,30.12,West,273,2.0,9.0,52,0.00,,---,0.00,VWS V14.01,2013-01-12 18:18:00,
2013-01-12 10:23:00,38.4,21.4,30.12,West,271,2.0,9.0,50,0.00,,---,0.00,VWS V14.01,2013-01-12 18:23:00,
2013-01-12 10:28:00,38.6,21.1,30.12,WNW,295,3.0,9.0,49,0.00,,---,0.00,VWS V14.01,2013-01-12 18:28:00,
2013-01-12 10:30:00,38.6,21.6,30.12,West,278,3.0,9.0,50,0.00,,---,0.00,VWS V14.01,2013-01-12 18:30:00,
2013-01-12 10:33:00,38.8,21.8,30.11,West,281,3.0,6.0,50,0.00,,---,0.00,VWS V14.01,2013-01-12 18:33:00,
2013-01-12 10:38:00,39.0,22.0,30.11,NW,309,3.0,9.0,50,0.00,,---,0.00,VWS V14.01,2013-01-12 18:38:00,
2013-01-12 10:43:00,38.9,21.4,30.11,West,276,2.0,9.0,49,0.00,,---,0.00,VWS V14.01,2013-01-12 18:43:00,
2013-01-12 10:47:00,38.8,22.2,30.11,WSW,252,4.0,9.0,51,0.00,,---,0.00,VWS V14.01,2013-01-12 18:47:00,
2013-01-12 10:52:00,38.7,22.1,30.11,NW,309,7.0,11.0,51,0.00,,---,0.00,VWS V14.01,2013-01-12 18:52:00,
2013-01-12 10:57:00,38.7,22.6,30.11,West,263,6.0,11.0,52,0.00,,---,0.00,VWS V14.01,2013-01-12 18:57:00,
2013-01-12 11:00:00,38.7,22.6,30.11,West,274,3.0,11.0,52,0.00,,---,0.00,VWS V14.01,2013-01-12 19:00:00,
2013-01-12 11:02:00,38.8,21.8,30.11,West,266,1.0,8.0,50,0.00,,---,0.00,VWS V14.01,2013-01-12 19:02:00,
2013-01-12 11:07:00,38.7,21.2,30.11,West,277,0.0,8.0,49,0.00,,---,0.00,VWS V14.01,2013-01-12 19:07:00,
2013-01-12 11:12:00,38.9,21.4,30.10,WNW,300,3.0,8.0,49,0.00,,---,0.00,VWS V14.01,2013-01-12 19:12:00,
2013-01-12 11:17:00,39.1,22.0,30.10,WSW,249,4.0,9.0,50,0.00,,---,0.00,VWS V14.01,2013-01-12 19:17:00,
2013-01-12 11:22:00,38.9,21.4,30.10,West,278,6.0,10.0,49,0.00,,---,0.00,VWS V14.01,2013-01-12 19:22:00,
2013-01-12 11:27:00,38.9,21.4,30.10,West,260,0.0,10.0,49,0.00,,---,0.00,VWS V14.01,2013-01-12 19:27:00,
2013-01-12 11:30:00,38.9,21.4,30.10,WNW,302,5.0,10.0,49,0.00,,---,0.00,VWS V14.01,2013-01-12 19:30:00,
2013-01-12 11:32:00,38.9,21.4,30.09,WNW,291,4.0,7.0,49,0.00,,---,0.00,VWS V14.01,2013-01-12 19:32:00,
2013-01-12 11:37:00,39.0,21.0,30.09,NW,309,6.0,7.0,48,0.00,,---,0.00,VWS V14.01,2013-01-12 19:37:00,
2013-01-12 11:42:00,39.1,21.6,30.09,WSW,257,2.0,9.0,49,0.00,,---,0.00,VWS V14.01,2013-01-12 19:42:00,
2013-01-12 11:47:00,39.3,22.2,30.09,SW,222,4.0,10.0,50,0.00,,---,0.00,VWS V14.01,2013-01-12 19:47:00,
2013-01-12 11:52:00,39.8,22.2,30.08,WSW,257,6.0,10.0,49,0.00,,---,0.00,VWS V14.01,2013-01-12 19:52:00,
2013-01-12 11:57:00,39.6,21.0,30.08,WSW,243,7.0,11.0,47,0.00,,---,0.00,VWS V14.01,2013-01-12 19:57:00,
2013-01-12 12:00:00,39.6,21.5,30.08,West,259,5.0,11.0,48,0.00,,---,0.00,VWS V14.01,2013-01-12 20:00:00,
2013-01-12 12:02:00,39.6,21.5,30.08,WNW,291,4.0,9.0,48,0.00,,---,0.00,VWS V14.01,2013-01-12 20:02:00,
2013-01-12 12:07:00,39.7,22.1,30.07,West,269,4.0,9.0,49,0.00,,---,0.00,VWS V14.01,2013-01-12 20:07:00,
2013-01-12 12:12:00,39.9,22.3,30.07,West,277,5.0,10.0,49,0.00,,---,0.00,VWS V14.01,2013-01-12 20:12:00,
2013-01-12 12:17:00,39.8,22.2,30.07,WSW,257,7.0,10.0,49,0.00,,---,0.00,VWS V14.01,2013-01-12 20:17:00,
2013-01-12 12:22:00,39.8,22.2,30.07,WNW,285,7.0,10.0,49,0.00,,---,0.00,VWS V14.01,2013-01-12 20:22:00,
2013-01-12 12:27:00,39.5,21.5,30.07,SSW,209,3.0,10.0,48,0.00,,---,0.00,VWS V14.01,2013-01-12 20:27:00,
2013-01-12 12:30:00,39.5,21.5,30.07,West,281,2.0,10.0,48,0.00,,---,0.00,VWS V14.01,2013-01-12 20:30:00,
2013-01-12 12:32:00,39.8,21.2,30.07,SSE,148,2.0,5.0,47,0.00,,---,0.00,VWS V14.01,2013-01-12 20:32:00,
2013-01-12 12:37:00,40.0,21.9,30.06,SW,232,3.0,7.0,48,0.00,,---,0.00,VWS V14.01,2013-01-12 20:37:00,
2013-01-12 12:42:00,40.2,22.1,30.06,SW,219,0.0,7.0,48,0.00,,---,0.00,VWS V14.01,2013-01-12 20:42:00,
2013-01-12 12:47:00,40.3,21.7,30.06,WNW,295,4.0,8.0,47,0.00,,---,0.00,VWS V14.01,2013-01-12 20:47:00,
2013-01-12 12:52:00,39.7,21.1,30.06,WSW,245,3.0,8.0,47,0.00,,---,0.00,VWS V14.01,2013-01-12 20:52:00,
2013-01-12 12:57:00,39.8,21.2,30.06,SW,236,0.0,8.0,47,0.00,,---,0.00,VWS V14.01,2013-01-12 20:57:00,
2013-01-12 13:00:00,39.9,21.3,30.06,WNW,295,0.0,8.0,47,0.00,,---,0.00,VWS V14.01,2013-01-12 21:00:00,
2013-01-12 13:02:00,40.0,21.4,30.06,West,281,3.0,7.0,47,0.00,,---,0.00,VWS V14.01,2013-01-12 21:02:00,
2013-01-12 13:07:00,39.7,21.1,30.05,West,277,4.0,7.0,47,0.00,,---,0.00,VWS V14.01,2013-01-12 21:07:00,
2013-01-12 13:12:00,39.9,21.8,30.05,WNW,295,5.0,7.0,48,0.00,,---,0.00,VWS V14.01,2013-01-12 21:12:00,
2013-01-12 13:17:00,40.4,22.8,30.05,WNW,300,5.0,7.0,49,0.00,,---,0.00,VWS V14.01,2013-01-12 21:17:00,
2013-01-12 13:22:00,40.5,21.9,30.05,West,277,4.0,7.0,47,0.00,,---,0.00,VWS V14.01,2013-01-12 21:22:00,
2013-01-12 13:27:00,40.7,23.0,30.05,WNW,298,6.0,8.0,49,0.00,,---,0.00,VWS V14.01,2013-01-12 21:27:00,
2013-01-12 13:30:00,40.7,23.0,30.05,West,279,7.0,8.0,49,0.00,,---,0.00,VWS V14.01,2013-01-12 21:30:00,
2013-01-12 13:32:00,40.1,21.0,30.05,West,266,2.0,7.0,46,0.00,,---,0.00,VWS V14.01,2013-01-12 21:32:00,
2013-01-12 13:37:00,39.9,21.8,30.05,SW,221,4.0,8.0,48,0.00,,---,0.00,VWS V14.01,2013-01-12 21:37:00,
2013-01-12 13:42:00,40.0,21.9,30.05,WNW,287,7.0,9.0,48,0.00,,---,0.00,VWS V14.01,2013-01-12 21:42:00,
2013-01-12 13:47:00,40.1,22.0,30.05,West,262,4.0,9.0,48,0.00,,---,0.00,VWS V14.01,2013-01-12 21:47:00,
2013-01-12 13:52:00,40.1,22.5,30.05,NW,321,3.0,9.0,49,0.00,,---,0.00,VWS V14.01,2013-01-12 21:52:00,
2013-01-12 13:57:00,40.1,22.5,30.05,West,278,4.0,9.0,49,0.00,,---,0.00,VWS V14.01,2013-01-12 21:57:00,
2013-01-12 14:00:00,40.2,22.6,30.05,WSW,255,4.0,9.0,49,0.00,,---,0.00,VWS V14.01,2013-01-12 22:00:00,
2013-01-12 14:02:00,40.1,21.5,30.05,West,274,6.0,8.0,47,0.00,,---,0.00,VWS V14.01,2013-01-12 22:02:00,
2013-01-12 14:07:00,40.0,21.4,30.05,West,266,5.0,8.0,47,0.00,,---,0.00,VWS V14.01,2013-01-12 22:07:00,
2013-01-12 14:12:00,40.1,21.0,30.05,SW,232,1.0,8.0,46,0.00,,---,0.00,VWS V14.01,2013-01-12 22:12:00,
2013-01-12 14:17:00,40.3,21.7,30.05,West,278,3.0,8.0,47,0.00,,---,0.00,VWS V14.01,2013-01-12 22:17:00,
2013-01-12 14:22:00,40.6,21.5,30.05,WNW,301,2.0,8.0,46,0.00,,---,0.00,VWS V14.01,2013-01-12 22:22:00,
2013-01-12 14:27:00,40.9,21.2,30.05,West,281,4.0,8.0,45,0.00,,---,0.00,VWS V14.01,2013-01-12 22:27:00,
2013-01-12 14:30:00,40.9,21.2,30.05,WSW,243,2.0,8.0,45,0.00,,---,0.00,VWS V14.01,2013-01-12 22:30:00,
2013-01-12 14:32:00,41.0,20.8,30.05,SW,226,2.0,7.0,44,0.00,,---,0.00,VWS V14.01,2013-01-12 22:32:00,
2013-01-12 14:37:00,41.0,20.8,30.04,WNW,285,4.0,7.0,44,0.00,,---,0.00,VWS V14.01,2013-01-12 22:37:00,
2013-01-12 14:42:00,41.0,21.3,30.04,SW,229,2.0,7.0,45,0.00,,---,0.00,VWS V14.01,2013-01-12 22:42:00,
2013-01-12 14:47:00,41.2,21.0,30.04,WNW,296,6.0,7.0,44,0.00,,---,0.00,VWS V14.01,2013-01-12 22:47:00,
2013-01-12 14:52:00,40.9,20.1,30.04,West,260,4.0,7.0,43,0.00,,---,0.00,VWS V14.01,2013-01-12 22:52:00,
2013-01-12 14:57:00,41.1,20.3,30.04,WSW,252,7.0,7.0,43,0.00,,---,0.00,VWS V14.01,2013-01-12 22:57:00,
2013-01-12 15:00:00,41.1,20.3,30.04,West,271,3.0,7.0,43,0.00,,---,0.00,VWS V14.01,2013-01-12 23:00:00,
2013-01-12 15:02:00,41.0,19.7,30.04,West,276,3.0,6.0,42,0.00,,---,0.00,VWS V14.01,2013-01-12 23:02:00,
2013-01-12 15:07:00,41.0,19.7,30.04,West,260,4.0,6.0,42,0.00,,---,0.00,VWS V14.01,2013-01-12 23:07:00,
2013-01-12 15:12:00,41.2,20.4,30.04,West,274,4.0,6.0,43,0.00,,---,0.00,VWS V14.01,2013-01-12 23:12:00,
2013-01-12 15:17:00,41.3,20.5,30.04,WNW,297,0.0,6.0,43,0.00,,---,0.00,VWS V14.01,2013-01-12 23:17:00,
2013-01-12 15:22:00,41.3,20.0,30.03,SW,235,0.0,7.0,42,0.00,,---,0.00,VWS V14.01,2013-01-12 23:22:00,
2013-01-12 15:27:00,41.5,19.6,30.03,WSW,239,3.0,7.0,41,0.00,,---,0.00,VWS V14.01,2013-01-12 23:27:00,
2013-01-12 15:30:00,41.5,19.0,30.03,West,260,1.0,7.0,40,0.00,,---,0.00,VWS V14.01,2013-01-12 23:30:00,
2013-01-12 15:32:00,41.5,19.0,30.03,SW,231,0.0,4.0,40,0.00,,---,0.00,VWS V14.01,2013-01-12 23:32:00,
2013-01-12 15:37:00,41.6,19.1,30.03,West,274,1.0,6.0,40,0.00,,---,0.00,VWS V14.01,2013-01-12 23:37:00,
2013-01-12 15:42:00,41.5,18.4,30.03,NW,314,2.0,6.0,39,0.00,,---,0.00,VWS V14.01,2013-01-12 23:42:00,
2013-01-12 15:47:00,41.3,18.2,30.03,WNW,283,3.0,7.0,39,0.00,,---,0.00,VWS V14.01,2013-01-12 23:47:00,
2013-01-12 15:52:00,41.2,18.7,30.03,WSW,257,3.0,7.0,40,0.00,,---,0.00,VWS V14.01,2013-01-12 23:52:00,
2013-01-12 15:57:00,41.0,18.5,30.03,West,259,1.0,7.0,40,0.00,,---,0.00,VWS V14.01,2013-01-12 23:57:00,
2013-01-12 16:00:00,41.0,19.7,30.03,West,273,3.0,7.0,42,0.00,,---,0.00,VWS V14.01,2013-01-13 00:00:00,
2013-01-12 16:02:00,40.8,21.1,30.03,West,270,2.0,6.0,45,0.00,,---,0.00,VWS V14.01,2013-01-13 00:02:00,
2013-01-12 16:07:00,40.4,22.8,30.03,West,276,8.0,8.0,49,0.00,,---,0.00,VWS V14.01,2013-01-13 00:07:00,
2013-01-12 16:12:00,39.9,23.3,30.03,WNW,285,4.0,8.0,51,0.00,,---,0.00,VWS V14.01,2013-01-13 00:12:00,
2013-01-12 16:17:00,39.1,23.9,30.03,SW,232,1.0,8.0,54,0.00,,---,0.00,VWS V14.01,2013-01-13 00:17:00,
2013-01-12 16:22:00,38.3,24.0,30.03,WSW,255,4.0,9.0,56,0.00,,---,0.00,VWS V14.01,2013-01-13 00:22:00,
2013-01-12 16:27:00,37.5,24.1,30.03,WSW,252,6.0,9.0,58,0.00,,---,0.00,VWS V14.01,2013-01-13 00:27:00,
2013-01-12 16:30:00,37.3,24.3,30.03,WSW,246,3.0,9.0,59,0.00,,---,0.00,VWS V14.01,2013-01-13 00:30:00,
2013-01-12 16:32:00,36.8,24.2,30.03,West,275,3.0,7.0,60,0.00,,---,0.00,VWS V14.01,2013-01-13 00:32:00,
2013-01-12 16:37:00,36.0,24.3,30.03,West,262,3.0,9.0,62,0.00,,---,0.00,VWS V14.01,2013-01-13 00:37:00,
2013-01-12 16:42:00,35.0,24.1,30.03,WSW,240,7.0,11.0,64,0.00,,---,0.00,VWS V14.01,2013-01-13 00:42:00,
2013-01-12 16:47:00,34.2,24.0,30.03,WSW,246,7.0,11.0,66,0.00,,---,0.00,VWS V14.01,2013-01-13 00:47:00,
2013-01-12 16:52:00,33.5,23.7,30.03,West,270,5.0,11.0,67,0.00,,---,0.00,VWS V14.01,2013-01-13 00:52:00,
2013-01-12 16:57:00,33.0,23.6,30.03,West,266,4.0,11.0,68,0.00,,---,0.00,VWS V14.01,2013-01-13 00:57:00,
2013-01-12 17:00:00,33.0,23.6,30.03,WSW,249,4.0,11.0,68,0.00,,---,0.00,VWS V14.01,2013-01-13 01:00:00,
2013-01-12 17:03:00,32.7,23.7,30.03,WNW,295,6.0,11.0,69,0.00,,---,0.00,VWS V14.01,2013-01-13 01:03:00,
2013-01-12 17:07:00,32.4,23.4,30.03,WSW,255,3.0,12.0,69,0.00,,---,0.00,VWS V14.01,2013-01-13 01:07:00,
2013-01-12 17:12:00,32.1,23.4,30.03,WSW,247,4.0,12.0,70,0.00,,---,0.00,VWS V14.01,2013-01-13 01:12:00,
2013-01-12 17:17:00,31.7,23.4,30.03,WSW,237,3.0,12.0,71,0.00,,---,0.00,VWS V14.01,2013-01-13 01:17:00,
2013-01-12 17:22:00,31.2,22.9,30.03,SW,229,4.0,12.0,71,0.00,,---,0.00,VWS V14.01,2013-01-13 01:22:00,
2013-01-12 17:27:00,30.8,22.9,30.03,SW,235,2.0,12.0,72,0.00,,---,0.00,VWS V14.01,2013-01-13 01:27:00,
2013-01-12 17:30:00,30.8,22.9,30.03,West,267,1.0,12.0,72,0.00,,---,0.00,VWS V14.01,2013-01-13 01:30:00,
2013-01-12 17:32:00,30.4,22.8,30.03,SW,236,2.0,4.0,73,0.00,,---,0.00,VWS V14.01,2013-01-13 01:32:00,
2013-01-12 17:37:00,30.1,22.8,30.03,WSW,246,1.0,5.0,74,0.00,,---,0.00,VWS V14.01,2013-01-13 01:37:00,
2013-01-12 17:42:00,30.2,22.6,30.03,SW,224,4.0,6.0,73,0.00,,---,0.00,VWS V14.01,2013-01-13 01:42:00,
2013-01-12 17:47:00,30.1,22.5,30.03,West,266,2.0,8.0,73,0.00,,---,0.00,VWS V14.01,2013-01-13 01:47:00,
2013-01-12 17:52:00,30.1,22.2,30.03,WSW,253,5.0,8.0,72,0.00,,---,0.00,VWS V14.01,2013-01-13 01:52:00,
2013-01-12 17:57:00,29.9,21.7,30.03,WSW,240,2.0,8.0,71,0.00,,---,0.00,VWS V14.01,2013-01-13 01:57:00,
2013-01-12 18:00:00,29.9,21.7,30.03,WSW,249,4.0,8.0,71,0.00,,---,0.00,VWS V14.01,2013-01-13 02:00:00,
2013-01-12 18:02:00,29.8,22.2,30.04,WSW,255,3.0,8.0,73,0.00,,---,0.00,VWS V14.01,2013-01-13 02:02:00,
2013-01-12 18:07:00,29.7,22.4,30.04,SW,232,3.0,8.0,74,0.00,,---,0.00,VWS V14.01,2013-01-13 02:07:00,
2013-01-12 18:12:00,29.7,22.1,30.04,SW,228,4.0,9.0,73,0.00,,---,0.00,VWS V14.01,2013-01-13 02:12:00,
2013-01-12 18:17:00,29.8,22.9,30.04,WSW,252,5.0,10.0,75,0.00,,---,0.00,VWS V14.01,2013-01-13 02:17:00,
2013-01-12 18:22:00,29.8,23.2,30.04,West,281,2.0,10.0,76,0.00,,---,0.00,VWS V14.01,2013-01-13 02:22:00,
2013-01-12 18:27:00,29.7,23.1,30.04,WNW,288,7.0,10.0,76,0.00,,---,0.00,VWS V14.01,2013-01-13 02:27:00,
2013-01-12 18:30:00,29.7,23.4,30.04,SW,226,5.0,10.0,77,0.00,,---,0.00,VWS V14.01,2013-01-13 02:30:00,
2013-01-12 18:32:00,29.8,23.2,30.04,WNW,288,3.0,7.0,76,0.00,,---,0.00,VWS V14.01,2013-01-13 02:32:00,
2013-01-12 18:37:00,30.0,23.0,30.04,SW,217,3.0,9.0,75,0.00,,---,0.00,VWS V14.01,2013-01-13 02:37:00,
2013-01-12 18:42:00,29.8,22.5,30.03,WSW,240,3.0,9.0,74,0.00,,---,0.00,VWS V14.01,2013-01-13 02:42:00,
2013-01-12 18:47:00,29.8,22.9,30.04,West,267,2.0,9.0,75,0.00,,---,0.00,VWS V14.01,2013-01-13 02:47:00,
2013-01-12 18:52:00,29.7,22.8,30.04,West,263,3.0,9.0,75,0.00,,---,0.00,VWS V14.01,2013-01-13 02:52:00,
2013-01-12 18:57:00,29.7,22.8,30.04,West,269,2.0,9.0,75,0.00,,---,0.00,VWS V14.01,2013-01-13 02:57:00,
2013-01-12 19:00:00,29.7,22.8,30.04,SW,225,7.0,9.0,75,0.00,,---,0.00,VWS V14.01,2013-01-13 03:00:00,
2013-01-12 19:02:00,29.6,22.7,30.04,West,281,2.0,7.0,75,0.00,,---,0.00,VWS V14.01,2013-01-13 03:02:00,
2013-01-12 19:07:00,29.6,22.7,30.04,SSW,207,4.0,10.0,75,0.00,,---,0.00,VWS V14.01,2013-01-13 03:07:00,
2013-01-12 19:12:00,29.4,22.1,30.04,SW,235,4.0,10.0,74,0.00,,---,0.00,VWS V14.01,2013-01-13 03:12:00,
2013-01-12 19:17:00,29.2,21.6,30.04,SW,215,4.0,10.0,73,0.00,,---,0.00,VWS V14.01,2013-01-13 03:17:00,
2013-01-12 19:22:00,28.9,21.7,30.04,West,278,2.0,10.0,74,0.00,,---,0.00,VWS V14.01,2013-01-13 03:22:00,
2013-01-12 19:27:00,28.8,21.6,30.05,WSW,240,3.0,10.0,74,0.00,,---,0.00,VWS V14.01,2013-01-13 03:27:00,
2013-01-12 19:30:00,28.7,21.5,30.05,West,259,1.0,10.0,74,0.00,,---,0.00,VWS V14.01,2013-01-13 03:30:00,
2013-01-12 19:32:00,28.4,21.5,30.05,SW,222,1.0,4.0,75,0.00,,---,0.00,VWS V14.01,2013-01-13 03:32:00,
2013-01-12 19:37:00,28.0,21.4,30.05,WSW,243,4.0,4.0,76,0.00,,---,0.00,VWS V14.01,2013-01-13 03:37:00,
2013-01-12 19:42:00,28.0,21.7,30.05,WSW,240,0.0,6.0,77,0.00,,---,0.00,VWS V14.01,2013-01-13 03:42:00,
2013-01-12 19:47:00,28.0,21.4,30.05,West,263,3.0,6.0,76,0.00,,---,0.00,VWS V14.01,2013-01-13 03:47:00,
2013-01-12 19:52:00,28.0,21.4,30.05,WSW,257,1.0,6.0,76,0.00,,---,0.00,VWS V14.01,2013-01-13 03:52:00,
2013-01-12 19:57:00,27.8,21.2,30.05,WSW,246,1.0,6.0,76,0.00,,---,0.00,VWS V14.01,2013-01-13 03:57:00,
2013-01-12 20:00:00,27.8,20.9,30.05,SW,235,2.0,6.0,75,0.00,,---,0.00,VWS V14.01,2013-01-13 04:00:00,
2013-01-12 20:02:00,27.5,20.6,30.05,WSW,249,0.0,3.0,75,0.00,,---,0.00,VWS V14.01,2013-01-13 04:02:00,
2013-01-12 20:07:00,27.2,20.6,30.05,SW,236,0.0,3.0,76,0.00,,---,0.00,VWS V14.01,2013-01-13 04:07:00,
2013-01-12 20:12:00,26.8,20.3,30.05,WSW,237,0.0,3.0,76,0.00,,---,0.00,VWS V14.01,2013-01-13 04:12:00,
2013-01-12 20:17:00,27.1,20.9,30.05,SW,224,6.0,6.0,77,0.00,,---,0.00,VWS V14.01,2013-01-13 04:17:00,
2013-01-12 20:22:00,27.1,20.9,30.05,WSW,240,2.0,6.0,77,0.00,,---,0.00,VWS V14.01,2013-01-13 04:22:00,
2013-01-12 20:27:00,27.1,20.9,30.05,SW,233,0.0,6.0,77,0.00,,---,0.00,VWS V14.01,2013-01-13 04:27:00,
2013-01-12 20:30:00,27.1,20.9,30.05,West,264,2.0,6.0,77,0.00,,---,0.00,VWS V14.01,2013-01-13 04:30:00,
2013-01-12 20:32:00,27.1,20.5,30.05,SW,232,1.0,3.0,76,0.00,,---,0.00,VWS V14.01,2013-01-13 04:32:00,
2013-01-12 20:37:00,26.9,20.4,30.05,West,262,0.0,3.0,76,0.00,,---,0.00,VWS V14.01,2013-01-13 04:37:00,
2013-01-12 20:42:00,26.5,19.4,30.05,NW,312,1.0,3.0,74,0.00,,---,0.00,VWS V14.01,2013-01-13 04:42:00,
2013-01-12 20:47:00,25.2,18.7,30.05,NW,309,0.0,3.0,76,0.00,,---,0.00,VWS V14.01,2013-01-13 04:47:00,
2013-01-12 20:52:00,24.3,18.1,30.05,WNW,301,0.0,3.0,77,0.00,,---,0.00,VWS V14.01,2013-01-13 04:52:00,
2013-01-12 20:57:00,24.0,18.5,30.05,West,274,0.0,3.0,79,0.00,,---,0.00,VWS V14.01,2013-01-13 04:57:00,
2013-01-12 21:00:00,23.8,18.2,30.05,West,281,0.0,0.0,79,0.00,,---,0.00,VWS V14.01,2013-01-13 05:00:00,
2013-01-12 21:01:00,23.8,18.2,30.05,West,281,0.0,0.0,79,0.00,,---,0.00,VWS V14.01,2013-01-13 05:01:00,
2013-01-12 21:03:00,23.7,18.5,30.05,West,281,0.0,0.0,80,0.00,,---,0.00,VWS V14.01,2013-01-13 05:03:00,
2013-01-12 21:08:00,23.4,17.9,30.05,West,281,0.0,0.0,79,0.00,,---,0.00,VWS V14.01,2013-01-13 05:08:00,
2013-01-12 21:13:00,22.8,17.6,30.05,West,280,0.0,0.0,80,0.00,,---,0.00,VWS V14.01,2013-01-13 05:13:00,
2013-01-12 21:18:00,22.6,17.7,30.05,West,264,1.0,2.0,81,0.00,,---,0.00,VWS V14.01,2013-01-13 05:18:00,
2013-01-12 21:23:00,22.7,18.0,30.05,West,281,2.0,3.0,82,0.00,,---,0.00,VWS V14.01,2013-01-13 05:23:00,
2013-01-12 21:28:00,22.5,17.9,30.05,West,274,0.0,3.0,82,0.00,,---,0.00,VWS V14.01,2013-01-13 05:28:00,
2013-01-12 21:30:00,22.5,17.9,30.05,West,266,0.0,3.0,82,0.00,,---,0.00,VWS V14.01,2013-01-13 05:30:00,
2013-01-12 21:33:00,22.3,17.9,30.05,West,274,0.0,2.0,83,0.00,,---,0.00,VWS V14.01,2013-01-13 05:33:00,
2013-01-12 21:38:00,22.2,17.8,30.05,West,269,0.0,2.0,83,0.00,,---,0.00,VWS V14.01,2013-01-13 05:38:00,
2013-01-12 21:43:00,21.9,17.5,30.05,WSW,253,0.0,2.0,83,0.00,,---,0.00,VWS V14.01,2013-01-13 05:43:00,
2013-01-12 21:48:00,21.6,17.2,30.05,West,259,0.0,3.0,83,0.00,,---,0.00,VWS V14.01,2013-01-13 05:48:00,
2013-01-12 21:53:00,21.2,16.9,30.05,West,262,0.0,3.0,83,0.00,,---,0.00,VWS V14.01,2013-01-13 05:53:00,
2013-01-12 21:58:00,21.3,17.2,30.05,WNW,283,0.0,3.0,84,0.00,,---,0.00,VWS V14.01,2013-01-13 05:58:00,
2013-01-12 22:00:00,21.3,17.2,30.05,West,270,0.0,3.0,84,0.00,,---,0.00,VWS V14.01,2013-01-13 06:00:00,
2013-01-12 22:03:00,21.5,17.7,30.06,WSW,252,1.0,3.0,85,0.00,,---,0.00,VWS V14.01,2013-01-13 06:03:00,
2013-01-12 22:08:00,21.7,17.9,30.06,West,273,3.0,4.0,85,0.00,,---,0.00,VWS V14.01,2013-01-13 06:08:00,
2013-01-12 22:13:00,21.5,17.4,30.06,West,280,2.0,4.0,84,0.00,,---,0.00,VWS V14.01,2013-01-13 06:13:00,
2013-01-12 22:18:00,21.1,16.8,30.07,West,273,1.0,4.0,83,0.00,,---,0.00,VWS V14.01,2013-01-13 06:18:00,
2013-01-12 22:23:00,20.5,16.2,30.07,West,273,2.0,4.0,83,0.00,,---,0.00,VWS V14.01,2013-01-13 06:23:00,
2013-01-12 22:28:00,20.1,15.8,30.07,West,281,0.0,4.0,83,0.00,,---,0.00,VWS V14.01,2013-01-13 06:28:00,
2013-01-12 22:30:00,20.0,15.7,30.07,West,280,1.0,4.0,83,0.00,,---,0.00,VWS V14.01,2013-01-13 06:30:00,
2013-01-12 22:33:00,19.8,15.8,30.07,West,274,1.0,3.0,84,0.00,,---,0.00,VWS V14.01,2013-01-13 06:33:00,
2013-01-12 22:38:00,19.9,16.1,30.07,West,264,0.0,3.0,85,0.00,,---,0.00,VWS V14.01,2013-01-13 06:38:00,
2013-01-12 22:43:00,20.0,16.2,30.07,West,267,1.0,3.0,85,0.00,,---,0.00,VWS V14.01,2013-01-13 06:43:00,
2013-01-12 22:48:00,20.0,15.9,30.07,West,274,2.0,3.0,84,0.00,,---,0.00,VWS V14.01,2013-01-13 06:48:00,
2013-01-12 22:53:00,19.7,15.4,30.07,West,277,0.0,3.0,83,0.00,,---,0.00,VWS V14.01,2013-01-13 06:53:00,
2013-01-12 22:58:00,19.7,15.7,30.07,WNW,288,1.0,3.0,84,0.00,,---,0.00,VWS V14.01,2013-01-13 06:58:00,
2013-01-12 23:00:00,19.7,15.7,30.07,WNW,288,0.0,3.0,84,0.00,,---,0.00,VWS V14.01,2013-01-13 07:00:00,
2013-01-12 23:03:00,19.8,16.0,30.07,WNW,291,1.0,2.0,85,0.00,,---,0.00,VWS V14.01,2013-01-13 07:03:00,
2013-01-12 23:08:00,20.1,16.3,30.07,West,278,1.0,2.0,85,0.00,,---,0.00,VWS V14.01,2013-01-13 07:08:00,
2013-01-12 23:13:00,20.5,17.0,30.07,WNW,285,1.0,2.0,86,0.00,,---,0.00,VWS V14.01,2013-01-13 07:13:00,
2013-01-12 23:18:00,21.1,17.6,30.07,West,273,0.0,2.0,86,0.00,,---,0.00,VWS V14.01,2013-01-13 07:18:00,
2013-01-12 23:23:00,21.5,18.0,30.07,WNW,285,2.0,3.0,86,0.00,,---,0.00,VWS V14.01,2013-01-13 07:23:00,
2013-01-12 23:28:00,21.8,18.3,30.07,WSW,257,0.0,3.0,86,0.00,,---,0.00,VWS V14.01,2013-01-13 07:28:00,
2013-01-12 23:30:00,21.8,18.0,30.07,WSW,257,0.0,3.0,85,0.00,,---,0.00,VWS V14.01,2013-01-13 07:30:00,
2013-01-12 23:33:00,22.0,18.2,30.07,West,265,0.0,1.0,85,0.00,,---,0.00,VWS V14.01,2013-01-13 07:33:00,
2013-01-12 23:38:00,22.1,18.3,30.07,WNW,288,0.0,1.0,85,0.00,,---,0.00,VWS V14.01,2013-01-13 07:38:00,
2013-01-12 23:43:00,22.2,18.4,30.07,West,274,0.0,3.0,85,0.00,,---,0.00,VWS V14.01,2013-01-13 07:43:00,
2013-01-12 23:48:00,22.4,18.6,30.07,West,278,0.0,3.0,85,0.00,,---,0.00,VWS V14.01,2013-01-13 07:48:00,
2013-01-12 23:53:00,22.8,18.7,30.06,West,273,0.0,3.0,84,0.00,,---,0.00,VWS V14.01,2013-01-13 07:53:00,
2013-01-12 23:58:00,22.9,18.8,30.06,West,276,0.0,3.0,84,0.00,,---,0.00,VWS V14.01,2013-01-13 07:58:00,